Wind Star — C6CA9 — position and weather

sailwx.info

Track history (hours):
 
Tides and Currents Weather Stations Pressure Air Temp Water Temp Dewpoint Dewpoint Depression Visibility Wind Speed Wind Dir Waves Ship Positions

Wind Star

Operator: Holland America Line

Last reported at 2014-Oct-30 06:33 UTC. Time now 2014-Oct-30 15:54 UTC.
Position N 43°18' E 005°22'.

Length 135 m; draft 4.1 m.

Type: Ship. MMSI: 309163000.

Date/timePositionNaut miles runAvg speedWind from/ knotsBaromVisibWave heightAir tempDewpointWater temp
2014-Oct-30 06:33N 43°18' E 005°22'6 6.5
2014-Oct-30 05:33N 43°12' E 005°18'13 6.0
2014-Oct-30 03:24N 43°06' E 005°33'6 7.3
2014-Oct-30 02:34N 43°03' E 005°41'7 7.4
2014-Oct-30 01:34N 43°00' E 005°50'8 8.3
2014-Oct-30 00:34N 42°57' E 006°01'9 8.9
2014-Oct-29 23:34N 42°54' E 006°12'10 9.7
2014-Oct-29 22:34N 42°55' E 006°25'9 9.1
2014-Oct-29 21:33N 42°59' E 006°36'9 9.1
2014-Oct-29 20:33N 43°06' E 006°45'9 9.1
2014-Oct-29 19:34N 43°14' E 006°51'9 8.6
2014-Oct-29 18:33N 43°21' E 006°57'8 8.1
2014-Oct-29 17:33N 43°29' E 007°00'3 3.2
2014-Oct-29 16:28N 43°32' E 007°01'0 0.0
2014-Oct-29 15:28N 43°32' E 007°01'0 0.0
2014-Oct-29 14:28N 43°32' E 007°01'0 0.0
2014-Oct-29 13:31N 43°32' E 007°01'0 0.0
2014-Oct-29 12:28N 43°32' E 007°01'0 0.0
2014-Oct-29 11:28N 43°32' E 007°01'0 0.0
2014-Oct-29 10:28N 43°32' E 007°01'0 0.0
2014-Oct-29 09:28N 43°32' E 007°01'0 0.0
2014-Oct-29 08:22N 43°32' E 007°01'0 0.0
2014-Oct-29 07:33N 43°32' E 007°01'0 0.0
2014-Oct-29 06:33N 43°32' E 007°01'4 3.9
2014-Oct-29 05:33N 43°29' E 007°02'7 6.7
2014-Oct-29 04:33N 43°28' E 007°11'7 6.3
2014-Oct-29 03:32N 43°29' E 007°20'7 6.2
2014-Oct-29 02:23N 43°30' E 007°30'4 3.1
2014-Oct-29 01:05N 43°33' E 007°34'4 6.1
2014-Oct-29 00:25N 43°36' E 007°30'5 6.0
2014-Oct-28 23:30N 43°40' E 007°27'4 0.2
2014-Oct-28 06:33N 43°44' E 007°26'44 6.4
2014-Oct-27 23:33N 43°55' E 008°26'8 6.1
2014-Oct-27 22:16N 43°58' E 008°36'5 7.2
2014-Oct-27 21:33N 44°01' E 008°42'7 7.0
2014-Oct-27 20:33N 44°05' E 008°50'8 7.7
2014-Oct-27 19:33N 44°09' E 008°59'6 6.5
2014-Oct-27 18:33N 44°12' E 009°07'6 6.5
2014-Oct-27 17:33N 44°15' E 009°15'3 1.1
2014-Oct-27 14:30N 44°19' E 009°14'0 0.0
2014-Oct-27 13:27N 44°19' E 009°14'0 0.0
2014-Oct-27 12:06N 44°19' E 009°14'0 0.0
2014-Oct-27 11:27N 44°19' E 009°14'0 0.0
2014-Oct-27 09:30N 44°19' E 009°14'0 0.0
2014-Oct-27 08:24N 44°19' E 009°14'0 0.0
2014-Oct-27 07:30N 44°19' E 009°14'0 0.0
2014-Oct-27 06:33N 44°19' E 009°14'3 2.6
2014-Oct-27 05:33N 44°17' E 009°17'8 7.7
2014-Oct-27 04:33N 44°09' E 009°17'7 7.1
2014-Oct-27 03:33N 44°02' E 009°17'7 6.8
2014-Oct-27 02:33N 43°55' E 009°19'7 7.0
2014-Oct-27 01:33N 43°49' E 009°23'7 6.8
2014-Oct-27 00:33N 43°43' E 009°28'8 7.9
2014-Oct-26 23:33N 43°37' E 009°34'8 8.2
2014-Oct-26 22:33N 43°30' E 009°39'8 8.4
2014-Oct-26 21:33N 43°22' E 009°45'9 8.5
2014-Oct-26 20:33N 43°16' E 009°52'9 8.4
2014-Oct-26 19:32N 43°09' E 010°00'22 1.5
2014-Oct-26 05:05N 42°54' E 010°22'  
2014-Oct-22 04:13N 37°47' E 015°29'  
Track history (hours):
 
Tides and Currents Weather Stations Pressure Air Temp Water Temp Dewpoint Dewpoint Depression Visibility Wind Speed Wind Dir Waves Ship Positions

Wind Star

Operator: Holland America Line

Last reported at 2014-Oct-30 06:33 UTC. Time now 2014-Oct-30 15:54 UTC.
Position N 43°18' E 005°22'.

Length 135 m; draft 4.1 m.

Type: Ship. MMSI: 309163000.

Date/timePositionNaut miles runAvg speedWind from/ knotsBaromVisibWave heightAir tempDewpointWater temp
2014-Oct-30 06:33N 43°18' E 005°22'6 6.5
2014-Oct-30 05:33N 43°12' E 005°18'13 6.0
2014-Oct-30 03:24N 43°06' E 005°33'6 7.3
2014-Oct-30 02:34N 43°03' E 005°41'7 7.4
2014-Oct-30 01:34N 43°00' E 005°50'8 8.3
2014-Oct-30 00:34N 42°57' E 006°01'9 8.9
2014-Oct-29 23:34N 42°54' E 006°12'10 9.7
2014-Oct-29 22:34N 42°55' E 006°25'9 9.1
2014-Oct-29 21:33N 42°59' E 006°36'9 9.1
2014-Oct-29 20:33N 43°06' E 006°45'9 9.1
2014-Oct-29 19:34N 43°14' E 006°51'9 8.6
2014-Oct-29 18:33N 43°21' E 006°57'8 8.1
2014-Oct-29 17:33N 43°29' E 007°00'3 3.2
2014-Oct-29 16:28N 43°32' E 007°01'0 0.0
2014-Oct-29 15:28N 43°32' E 007°01'0 0.0
2014-Oct-29 14:28N 43°32' E 007°01'0 0.0
2014-Oct-29 13:31N 43°32' E 007°01'0 0.0
2014-Oct-29 12:28N 43°32' E 007°01'0 0.0
2014-Oct-29 11:28N 43°32' E 007°01'0 0.0
2014-Oct-29 10:28N 43°32' E 007°01'0 0.0
2014-Oct-29 09:28N 43°32' E 007°01'0 0.0
2014-Oct-29 08:22N 43°32' E 007°01'0 0.0
2014-Oct-29 07:33N 43°32' E 007°01'0 0.0
2014-Oct-29 06:33N 43°32' E 007°01'4 3.9
2014-Oct-29 05:33N 43°29' E 007°02'7 6.7
2014-Oct-29 04:33N 43°28' E 007°11'7 6.3
2014-Oct-29 03:32N 43°29' E 007°20'7 6.2
2014-Oct-29 02:23N 43°30' E 007°30'4 3.1
2014-Oct-29 01:05N 43°33' E 007°34'4 6.1
2014-Oct-29 00:25N 43°36' E 007°30'5 6.0
2014-Oct-28 23:30N 43°40' E 007°27'4 0.2
2014-Oct-28 06:33N 43°44' E 007°26'44 6.4
2014-Oct-27 23:33N 43°55' E 008°26'8 6.1
2014-Oct-27 22:16N 43°58' E 008°36'5 7.2
2014-Oct-27 21:33N 44°01' E 008°42'7 7.0
2014-Oct-27 20:33N 44°05' E 008°50'8 7.7
2014-Oct-27 19:33N 44°09' E 008°59'6 6.5
2014-Oct-27 18:33N 44°12' E 009°07'6 6.5
2014-Oct-27 17:33N 44°15' E 009°15'3 1.1
2014-Oct-27 14:30N 44°19' E 009°14'0 0.0
2014-Oct-27 13:27N 44°19' E 009°14'0 0.0
2014-Oct-27 12:06N 44°19' E 009°14'0 0.0
2014-Oct-27 11:27N 44°19' E 009°14'0 0.0
2014-Oct-27 09:30N 44°19' E 009°14'0 0.0
2014-Oct-27 08:24N 44°19' E 009°14'0 0.0
2014-Oct-27 07:30N 44°19' E 009°14'0 0.0
2014-Oct-27 06:33N 44°19' E 009°14'3 2.6
2014-Oct-27 05:33N 44°17' E 009°17'8 7.7
2014-Oct-27 04:33N 44°09' E 009°17'7 7.1
2014-Oct-27 03:33N 44°02' E 009°17'7 6.8
2014-Oct-27 02:33N 43°55' E 009°19'7 7.0
2014-Oct-27 01:33N 43°49' E 009°23'7 6.8
2014-Oct-27 00:33N 43°43' E 009°28'8 7.9
2014-Oct-26 23:33N 43°37' E 009°34'8 8.2
2014-Oct-26 22:33N 43°30' E 009°39'8 8.4
2014-Oct-26 21:33N 43°22' E 009°45'9 8.5
2014-Oct-26 20:33N 43°16' E 009°52'9 8.4
2014-Oct-26 19:32N 43°09' E 010°00'22 1.5
2014-Oct-26 05:05N 42°54' E 010°22'  
2014-Oct-22 04:13N 37°47' E 015°29'  

Dump ship's entire track history